Time;durP1;ratioP1;P1;durP2;ratioP2;P2;SDS_P1;SDS_P2;PMS_P1;PMS_P2;Temp;Humidity;BMP_temperature;BMP_pressure;BME280_temperature;BME280_humidity;BME280_pressure;Samples;Min_cycle;Max_cycle;Signal;HPM_P1;HPM_P2
2022/07/22 00:00:33;;;;;;;16.90;9.05;;;22.80;99.90;;;;;;6335350;28;20294;-67
2022/07/22 00:03:38;;;;;;;23.75;9.43;;;22.70;99.90;;;;;;6335667;28;20342;-67
2022/07/22 00:06:44;;;;;;;17.83;9.73;;;22.70;99.90;;;;;;6335622;28;20565;-67
2022/07/22 00:09:49;;;;;;;16.85;9.45;;;22.70;99.90;;;;;;6335553;28;20269;-67
2022/07/22 00:12:54;;;;;;;12.73;9.18;;;22.70;99.90;;;;;;6335348;28;20273;-67
2022/07/22 00:16:01;;;;;;;12.18;8.95;;;22.70;99.90;;;;;;6335533;28;20274;-67
2022/07/22 00:19:06;;;;;;;13.07;8.90;;;22.70;99.90;;;;;;6335434;28;20533;-67
2022/07/22 00:22:12;;;;;;;12.27;8.88;;;22.70;99.90;;;;;;6335415;28;20275;-67
2022/07/22 00:25:18;;;;;;;16.05;8.93;;;22.70;99.90;;;;;;6335449;28;20274;-67
2022/07/22 00:28:24;;;;;;;12.65;9.70;;;22.80;99.90;;;;;;6335734;28;20269;-67
2022/07/22 00:31:31;;;;;;;20.38;9.98;;;22.60;99.90;;;;;;6335599;28;20273;-67
2022/07/22 00:34:37;;;;;;;15.77;10.32;;;22.70;99.90;;;;;;6335184;28;20270;-67
2022/07/22 00:37:42;;;;;;;19.60;10.20;;;22.70;99.90;;;;;;6335621;28;20298;-67
2022/07/22 00:40:48;;;;;;;19.83;9.93;;;22.60;99.90;;;;;;6317523;28;20297;-67
2022/07/22 00:43:56;;;;;;;15.25;9.48;;;22.60;99.90;;;;;;6335815;28;20277;-67
2022/07/22 00:47:04;;;;;;;14.57;10.02;;;22.50;99.90;;;;;;6340299;28;20585;-67
2022/07/22 00:50:10;;;;;;;28.88;10.68;;;22.50;99.90;;;;;;6340515;28;20574;-67
2022/07/22 00:53:15;;;;;;;16.73;9.90;;;22.50;99.90;;;;;;6340143;28;20270;-67
2022/07/22 00:56:21;;;;;;;12.45;9.20;;;22.40;99.90;;;;;;6321925;28;20270;-67
2022/07/22 00:59:26;;;;;;;9.85;8.18;;;22.50;99.90;;;;;;6339697;28;20266;-67
2022/07/22 01:02:33;;;;;;;12.10;8.35;;;22.60;99.90;;;;;;6339705;28;20604;-67
2022/07/22 01:05:38;;;;;;;11.63;8.13;;;22.60;99.90;;;;;;6325887;28;20267;-67
2022/07/22 01:08:44;;;;;;;12.45;8.15;;;22.70;99.90;;;;;;6314397;28;20270;-67
2022/07/22 01:11:49;;;;;;;8.82;8.07;;;22.70;99.90;;;;;;6313447;28;20274;-67
2022/07/22 01:14:54;;;;;;;14.40;7.78;;;22.80;99.90;;;;;;6314273;28;20286;-67
2022/07/22 01:18:01;;;;;;;9.93;7.65;;;22.80;99.90;;;;;;6314621;28;20270;-67
2022/07/22 01:21:10;;;;;;;10.18;7.75;;;22.80;99.90;;;;;;6296843;28;20299;-67
2022/07/22 01:24:15;;;;;;;11.10;8.15;;;22.90;99.90;;;;;;6314293;28;20514;-67
2022/07/22 01:27:21;;;;;;;11.40;8.32;;;22.90;99.90;;;;;;6314023;28;20270;-67
2022/07/22 01:30:27;;;;;;;9.15;8.07;;;22.90;99.90;;;;;;6314312;28;20274;-67
2022/07/22 01:33:33;;;;;;;8.32;7.35;;;22.90;99.90;;;;;;6312718;28;20270;-67
2022/07/22 01:36:40;;;;;;;11.50;7.65;;;22.90;99.90;;;;;;6313896;28;20275;-67
2022/07/22 01:39:45;;;;;;;13.85;7.80;;;22.90;99.90;;;;;;6338025;28;20270;-67
2022/07/22 01:42:50;;;;;;;8.77;8.05;;;23.00;99.90;;;;;;6337977;28;20474;-67
2022/07/22 01:45:57;;;;;;;11.30;8.48;;;22.90;99.90;;;;;;6337924;28;20274;-67
2022/07/22 01:49:03;;;;;;;12.95;8.73;;;22.80;99.90;;;;;;6321021;28;20266;-67
2022/07/22 01:52:15;;;;;;;13.18;8.35;;;22.90;99.90;;;;;;6336861;28;20309;-67
2022/07/22 01:55:21;;;;;;;16.98;8.65;;;22.80;99.90;;;;;;6320341;28;20289;-67
2022/07/22 01:58:27;;;;;;;9.55;8.30;;;22.80;99.90;;;;;;6320613;28;20269;-67
2022/07/22 02:01:34;;;;;;;15.07;8.73;;;22.70;99.90;;;;;;6320374;28;20369;-67
2022/07/22 02:04:39;;;;;;;9.95;8.32;;;22.80;99.90;;;;;;6320353;28;20273;-67
2022/07/22 02:07:47;;;;;;;10.75;7.90;;;22.70;99.90;;;;;;6320325;28;20278;-67
2022/07/22 02:10:55;;;;;;;11.20;8.10;;;22.60;99.90;;;;;;6320404;28;20450;-67
2022/07/22 02:14:01;;;;;;;8.57;7.78;;;22.60;99.90;;;;;;6320589;28;20269;-67
2022/07/22 02:17:07;;;;;;;8.43;7.65;;;22.60;99.90;;;;;;6320384;28;20289;-68
2022/07/22 02:20:13;;;;;;;12.38;8.10;;;22.50;99.90;;;;;;6320146;28;20273;-67
2022/07/22 02:23:20;;;;;;;13.45;8.77;;;22.40;99.90;;;;;;6338011;28;20295;-67
2022/07/22 02:26:26;;;;;;;14.55;8.35;;;22.40;99.90;;;;;;6320198;28;20273;-67
2022/07/22 02:29:32;;;;;;;11.35;8.63;;;22.50;99.90;;;;;;6337438;28;20567;-67
2022/07/22 02:32:37;;;;;;;14.05;8.68;;;22.40;99.90;;;;;;6319972;28;20269;-67
2022/07/22 02:35:44;;;;;;;9.15;8.25;;;22.30;99.90;;;;;;6319872;28;20270;-67
2022/07/22 02:38:51;;;;;;;11.93;8.80;;;22.30;99.90;;;;;;6337349;28;20298;-67
2022/07/22 02:41:57;;;;;;;9.40;8.43;;;22.30;99.90;;;;;;6319391;28;20289;-67
2022/07/22 02:45:04;;;;;;;13.77;9.45;;;22.30;99.90;;;;;;6337644;28;20274;-67
2022/07/22 02:48:13;;;;;;;10.18;8.77;;;22.40;99.90;;;;;;6320281;28;20273;-67
2022/07/22 02:51:19;;;;;;;11.93;8.93;;;22.30;99.90;;;;;;6319396;28;20368;-67
2022/07/22 02:54:25;;;;;;;16.45;9.98;;;22.20;99.90;;;;;;6336099;28;20274;-67
2022/07/22 02:57:32;;;;;;;11.27;9.32;;;22.20;99.90;;;;;;6336075;28;20270;-67
2022/07/22 03:00:38;;;;;;;12.57;10.13;;;22.10;99.90;;;;;;6318845;28;20273;-67
2022/07/22 03:03:44;;;;;;;13.93;9.45;;;22.00;99.90;;;;;;6318693;28;20290;-67
2022/07/22 03:06:50;;;;;;;9.88;8.88;;;22.10;99.90;;;;;;6336764;28;20262;-67
2022/07/22 03:10:00;;;;;;;10.23;9.15;;;22.10;99.90;;;;;;6335444;28;20270;-67
2022/07/22 03:13:11;;;;;;;11.82;8.73;;;22.10;99.90;;;;;;6319349;28;20285;-67
2022/07/22 03:16:17;;;;;;;11.73;9.00;;;22.10;99.90;;;;;;6318614;28;20269;-67
2022/07/22 03:19:23;;;;;;;15.80;8.85;;;22.10;99.90;;;;;;6335563;28;20275;-67
2022/07/22 03:22:30;;;;;;;9.75;8.80;;;22.10;99.90;;;;;;6318631;28;20289;-67
2022/07/22 03:25:38;;;;;;;17.25;9.00;;;22.10;99.90;;;;;;6335112;28;20269;-67
2022/07/22 03:28:43;;;;;;;14.35;9.40;;;22.20;99.90;;;;;;6318563;28;20274;-67
2022/07/22 03:31:48;;;;;;;16.42;9.25;;;22.10;99.90;;;;;;6335230;28;20274;-67
2022/07/22 03:35:04;;;;;;;11.73;9.77;;;22.10;99.90;;;;;;6318057;28;20273;-67
2022/07/22 03:38:13;;;;;;;10.73;8.82;;;22.10;99.90;;;;;;6309800;28;20302;-67
2022/07/22 03:41:21;;;;;;;10.30;9.15;;;22.10;99.90;;;;;;6293351;28;20270;-67
2022/07/22 03:44:28;;;;;;;13.55;9.15;;;22.20;99.90;;;;;;6326296;28;20295;-67
2022/07/22 03:47:34;;;;;;;11.75;8.90;;;22.30;99.90;;;;;;6326396;28;20274;-67
2022/07/22 03:50:39;;;;;;;9.10;8.40;;;22.30;99.90;;;;;;6293414;28;20275;-67
2022/07/22 03:53:45;;;;;;;10.45;8.93;;;22.30;99.90;;;;;;6293109;28;20278;-67
2022/07/22 03:56:52;;;;;;;10.48;9.20;;;22.40;99.90;;;;;;6292607;28;20270;-67
2022/07/22 03:59:57;;;;;;;9.05;8.25;;;22.40;99.90;;;;;;6310066;28;20270;-67
2022/07/22 04:03:03;;;;;;;9.88;8.95;;;22.40;99.90;;;;;;6292539;28;20294;-67
2022/07/22 04:06:40;;;;;;;11.32;9.55;;;22.50;99.90;;;;;;6266309;28;20550;-67
2022/07/22 04:10:04;;;;;;;9.93;8.98;;;22.40;99.90;;;;;;6309332;28;20293;-67
2022/07/22 04:13:14;;;;;;;11.30;9.15;;;22.20;99.90;;;;;;6292565;28;20273;-67
2022/07/22 04:16:25;;;;;;;13.80;8.90;;;22.20;99.90;;;;;;6292917;28;20275;-67
2022/07/22 04:19:39;;;;;;;13.40;8.75;;;22.10;99.90;;;;;;6294595;28;20270;-67
2022/07/22 04:23:06;;;;;;;9.25;8.45;;;22.10;99.90;;;;;;6297723;28;20585;-67
2022/07/22 04:26:13;;;;;;;9.85;8.95;;;22.20;99.90;;;;;;6330506;28;20275;-67
2022/07/22 04:29:19;;;;;;;9.38;8.43;;;22.10;99.90;;;;;;6331006;28;20275;-67
2022/07/22 04:32:25;;;;;;;11.27;8.88;;;22.10;99.90;;;;;;6314926;28;20270;-67
2022/07/22 04:35:30;;;;;;;9.18;8.30;;;22.10;99.90;;;;;;6297556;28;20458;-67
2022/07/22 04:38:47;;;;;;;10.45;9.55;;;22.10;99.90;;;;;;6297612;28;20558;-67
2022/07/22 04:41:52;;;;;;;11.75;8.60;;;22.00;99.90;;;;;;6297549;28;20290;-67
2022/07/22 04:45:00;;;;;;;10.90;8.88;;;21.90;99.90;;;;;;6313611;28;20295;-67
2022/07/22 04:48:06;;;;;;;8.45;7.80;;;21.90;99.90;;;;;;6314693;28;20271;-67
2022/07/22 04:51:12;;;;;;;9.75;8.95;;;21.90;99.90;;;;;;6297309;28;20274;-67
2022/07/22 04:54:20;;;;;;;10.05;9.07;;;21.80;99.90;;;;;;6297440;28;20284;-67
2022/07/22 04:57:30;;;;;;;10.48;9.05;;;21.80;99.90;;;;;;6313878;28;20274;-67
2022/07/22 05:00:38;;;;;;;9.48;8.50;;;21.80;99.90;;;;;;6296904;28;20274;-67
2022/07/22 05:03:44;;;;;;;9.90;9.00;;;21.80;99.90;;;;;;6313660;28;20290;-67
2022/07/22 05:06:50;;;;;;;9.38;8.45;;;21.90;99.90;;;;;;6308778;28;20262;-67
2022/07/22 05:09:55;;;;;;;9.40;8.57;;;21.90;99.90;;;;;;6291290;28;20446;-67
2022/07/22 05:13:00;;;;;;;9.48;8.32;;;21.80;99.90;;;;;;6296390;28;20270;-67
2022/07/22 05:16:09;;;;;;;11.23;8.27;;;21.90;99.90;;;;;;6296363;28;20275;-67
2022/07/22 05:19:17;;;;;;;10.25;8.57;;;21.90;99.90;;;;;;6295708;28;20290;-67
2022/07/22 05:22:23;;;;;;;9.25;8.45;;;21.90;99.90;;;;;;6312603;28;20266;-67
2022/07/22 05:25:30;;;;;;;12.75;9.65;;;22.00;99.90;;;;;;6312870;28;20292;-67
2022/07/22 05:28:36;;;;;;;9.75;8.75;;;22.00;99.90;;;;;;6314249;28;20275;-67
2022/07/22 05:31:42;;;;;;;10.88;9.10;;;22.00;99.90;;;;;;6296340;28;20274;-67
2022/07/22 05:34:48;;;;;;;9.27;8.35;;;22.00;99.90;;;;;;6312728;28;20278;-67
2022/07/22 05:37:53;;;;;;;9.93;8.73;;;22.00;99.90;;;;;;6305589;28;20306;-67
2022/07/22 05:40:59;;;;;;;9.35;8.48;;;22.10;99.90;;;;;;6337689;28;20273;-67
2022/07/22 05:44:05;;;;;;;12.25;8.35;;;22.10;99.90;;;;;;6320771;28;20298;-67
2022/07/22 05:47:14;;;;;;;9.48;8.48;;;22.10;99.90;;;;;;6337228;28;20269;-67
2022/07/22 05:50:19;;;;;;;9.70;8.73;;;22.20;99.90;;;;;;6337513;28;20269;-67
2022/07/22 05:53:25;;;;;;;13.00;8.98;;;22.30;99.90;;;;;;6337260;28;20269;-67
2022/07/22 05:56:30;;;;;;;9.98;8.40;;;22.50;99.90;;;;;;6337397;28;20305;-67
2022/07/22 05:59:37;;;;;;;10.88;8.73;;;22.50;99.90;;;;;;6320931;28;20270;-67
2022/07/22 06:02:43;;;;;;;12.73;8.93;;;22.60;99.90;;;;;;6338023;28;20298;-67
2022/07/22 06:05:54;;;;;;;9.27;8.45;;;22.70;99.90;;;;;;6337264;28;20285;-67
2022/07/22 06:08:59;;;;;;;9.88;8.38;;;22.80;99.90;;;;;;6337247;28;20274;-67
2022/07/22 06:12:07;;;;;;;11.98;9.15;;;22.90;99.90;;;;;;6338234;28;20576;-67
2022/07/22 06:15:13;;;;;;;9.63;8.63;;;23.00;99.90;;;;;;6336997;28;20273;-67
2022/07/22 06:18:20;;;;;;;12.75;8.88;;;23.10;99.90;;;;;;6319825;28;20447;-67
2022/07/22 06:21:25;;;;;;;10.50;9.57;;;23.20;99.90;;;;;;6337428;28;20403;-67
2022/07/22 06:24:30;;;;;;;11.68;9.88;;;23.30;99.90;;;;;;6319583;28;20576;-67
2022/07/22 06:27:35;;;;;;;10.77;9.75;;;23.30;99.90;;;;;;6337898;28;20266;-67
2022/07/22 06:30:43;;;;;;;9.93;9.02;;;23.30;99.90;;;;;;6320074;28;20441;-67
2022/07/22 06:33:51;;;;;;;10.20;9.20;;;23.40;99.90;;;;;;6319538;28;20273;-67
2022/07/22 06:36:57;;;;;;;14.48;9.70;;;23.50;99.90;;;;;;6319587;28;20273;-67
2022/07/22 06:40:03;;;;;;;12.93;9.32;;;23.70;99.90;;;;;;6336205;28;20277;-67
2022/07/22 06:43:33;;;;;;;10.98;9.88;;;23.70;99.90;;;;;;6335718;28;20271;-67
2022/07/22 06:46:56;;;;;;;10.80;9.68;;;23.70;99.90;;;;;;6336896;28;20289;-67
2022/07/22 06:50:06;;;;;;;9.68;8.68;;;23.60;99.90;;;;;;6318965;28;20556;-67
2022/07/22 06:53:18;;;;;;;10.43;9.48;;;23.80;99.90;;;;;;6335807;28;20270;-67
2022/07/22 06:56:23;;;;;;;10.57;9.55;;;23.80;99.90;;;;;;6319059;28;20270;-67
2022/07/22 06:59:29;;;;;;;10.73;9.75;;;23.90;99.90;;;;;;6319154;28;20269;-67
2022/07/22 07:02:35;;;;;;;10.98;9.30;;;24.10;99.90;;;;;;6319057;28;20275;-67
2022/07/22 07:05:42;;;;;;;10.98;9.10;;;24.00;99.90;;;;;;6321542;28;20456;-67
2022/07/22 07:08:48;;;;;;;9.95;8.98;;;23.90;99.90;;;;;;6293916;28;20267;-67
2022/07/22 07:11:54;;;;;;;9.70;8.93;;;23.90;99.90;;;;;;6294084;28;20270;-66
2022/07/22 07:15:19;;;;;;;10.38;9.48;;;23.90;99.90;;;;;;6310861;28;20274;-67
2022/07/22 07:18:30;;;;;;;10.55;9.48;;;24.00;99.90;;;;;;6310477;28;20270;-67
2022/07/22 07:21:37;;;;;;;11.88;9.32;;;24.00;99.90;;;;;;6310051;28;20274;-67
2022/07/22 07:24:42;;;;;;;12.43;8.90;;;23.90;99.90;;;;;;6293296;28;20275;-67
2022/07/22 07:27:48;;;;;;;10.02;8.80;;;23.90;99.90;;;;;;6293889;28;20545;-68
2022/07/22 07:30:56;;;;;;;10.25;9.18;;;24.00;99.90;;;;;;6310978;28;20266;-68
2022/07/22 07:34:02;;;;;;;11.10;9.15;;;24.00;99.90;;;;;;6309703;28;20451;-68
2022/07/22 07:37:08;;;;;;;9.90;8.90;;;24.00;99.90;;;;;;6314135;28;20297;-67
2022/07/22 07:40:16;;;;;;;13.05;9.63;;;24.30;99.90;;;;;;6317965;28;20269;-67
2022/07/22 07:43:22;;;;;;;11.35;8.90;;;24.40;99.90;;;;;;6334794;28;20273;-66
2022/07/22 07:46:28;;;;;;;9.88;8.70;;;24.40;99.90;;;;;;6317838;28;20294;-67
2022/07/22 07:49:35;;;;;;;13.18;8.90;;;24.40;99.90;;;;;;6317915;28;20273;-68
2022/07/22 07:52:47;;;;;;;9.82;8.93;;;24.30;99.90;;;;;;6317891;28;20265;-67
2022/07/22 07:55:58;;;;;;;10.50;9.43;;;24.30;99.90;;;;;;6334020;28;20528;-67
2022/07/22 07:59:03;;;;;;;17.67;9.57;;;24.30;99.90;;;;;;6334711;28;20274;-68
2022/07/22 08:02:29;;;;;;;10.02;9.10;;;24.30;99.90;;;;;;6317556;28;20572;-67
2022/07/22 08:05:34;;;;;;;11.55;8.95;;;24.10;99.90;;;;;;6304904;28;20286;-68
2022/07/22 08:08:41;;;;;;;9.25;8.45;;;24.10;99.90;;;;;;6292249;28;20271;-67
2022/07/22 08:11:54;;;;;;;10.23;9.35;;;24.20;99.90;;;;;;6292631;28;20274;-67
2022/07/22 08:15:18;;;;;;;11.57;8.95;;;24.10;99.90;;;;;;6292305;28;20282;-67
2022/07/22 08:18:30;;;;;;;10.95;9.00;;;24.10;99.90;;;;;;6310521;28;20270;-67
2022/07/22 08:21:36;;;;;;;10.70;8.63;;;24.10;99.90;;;;;;6292768;28;20573;-67
2022/07/22 08:25:02;;;;;;;9.70;8.77;;;24.10;99.90;;;;;;6310419;28;20275;-67
2022/07/22 08:28:07;;;;;;;9.02;8.27;;;24.30;99.90;;;;;;6308904;28;20469;-67
2022/07/22 08:31:12;;;;;;;12.00;8.45;;;24.20;99.90;;;;;;6292030;28;20270;-68
2022/07/22 08:34:18;;;;;;;9.95;8.82;;;24.20;99.90;;;;;;6309900;28;20274;-68
2022/07/22 08:37:25;;;;;;;9.10;8.25;;;24.20;99.90;;;;;;6297181;28;20297;-67
2022/07/22 08:40:31;;;;;;;9.60;8.73;;;24.10;99.90;;;;;;6317579;28;20345;-67
2022/07/22 08:43:41;;;;;;;9.75;8.45;;;24.20;99.90;;;;;;6317339;28;20266;-68
2022/07/22 08:46:47;;;;;;;9.25;8.48;;;24.10;99.90;;;;;;6333799;28;20293;-66
2022/07/22 08:49:58;;;;;;;18.88;8.52;;;24.20;99.90;;;;;;6335202;28;20278;-67
2022/07/22 08:53:22;;;;;;;8.57;7.88;;;24.30;99.90;;;;;;6317544;28;20436;-66
2022/07/22 08:56:32;;;;;;;8.30;7.70;;;24.40;99.90;;;;;;6333823;28;20273;-67
2022/07/22 08:59:51;;;;;;;11.20;10.10;;;24.40;99.90;;;;;;6316635;28;20274;-67
2022/07/22 09:02:57;;;;;;;14.02;9.82;;;24.50;99.90;;;;;;6316771;28;20266;-68
2022/07/22 09:06:05;;;;;;;22.85;14.80;;;24.50;99.90;;;;;;6315222;28;20262;-68
2022/07/22 09:09:10;;;;;;;12.73;11.43;;;24.40;99.90;;;;;;6340021;28;20550;-68
2022/07/22 09:12:29;;;;;;;10.20;8.93;;;24.50;99.90;;;;;;6339560;28;20278;-66
2022/07/22 09:15:51;;;;;;;10.95;9.20;;;24.60;99.90;;;;;;6321560;28;20274;-67
2022/07/22 09:19:16;;;;;;;10.75;8.18;;;24.80;99.90;;;;;;6338989;28;20270;-67
2022/07/22 09:22:43;;;;;;;8.50;7.80;;;24.80;99.90;;;;;;6337817;28;20420;-67
2022/07/22 09:25:55;;;;;;;9.32;8.23;;;24.80;99.90;;;;;;6320821;28;20445;-67
2022/07/22 09:29:03;;;;;;;8.68;7.82;;;24.90;99.90;;;;;;6339201;28;20584;-66
2022/07/22 09:32:41;;;;;;;8.27;7.60;;;24.90;99.90;;;;;;6335837;28;20277;-67
2022/07/22 09:36:06;;;;;;;9.55;7.85;;;24.90;99.90;;;;;;6337857;28;20269;-67
2022/07/22 09:39:26;;;;;;;8.15;6.60;;;24.90;99.90;;;;;;6320328;28;20297;-67
2022/07/22 09:42:46;;;;;;;9.07;7.70;;;24.90;99.90;;;;;;6321320;28;20270;-67
2022/07/22 09:45:57;;;;;;;7.97;7.28;;;24.80;99.90;;;;;;6320849;28;20274;-67
2022/07/22 09:49:33;;;;;;;8.10;7.50;;;24.80;99.90;;;;;;6338387;28;20285;-67
2022/07/22 09:53:01;;;;;;;10.27;7.57;;;24.80;99.90;;;;;;6338058;28;20274;-67
2022/07/22 09:56:10;;;;;;;8.30;7.35;;;24.90;99.90;;;;;;6320776;28;20270;-67
2022/07/22 09:59:16;;;;;;;9.07;7.30;;;24.90;99.90;;;;;;6320418;28;20471;-66
2022/07/22 10:02:31;;;;;;;8.20;7.00;;;24.70;99.90;;;;;;6337558;28;20586;-66
2022/07/22 10:05:39;;;;;;;9.13;7.53;;;24.70;99.90;;;;;;6336744;28;20446;-66
2022/07/22 10:08:45;;;;;;;10.50;8.18;;;24.70;99.90;;;;;;6338051;28;20464;-67
2022/07/22 10:11:50;;;;;;;11.38;7.70;;;24.60;99.90;;;;;;6319960;28;20270;-67
2022/07/22 10:15:00;;;;;;;7.65;7.05;;;24.40;99.90;;;;;;6320039;28;20433;-67
2022/07/22 10:18:14;;;;;;;11.55;7.47;;;24.40;99.90;;;;;;6319214;28;20274;-66
2022/07/22 10:21:33;;;;;;;12.48;7.97;;;24.30;99.90;;;;;;6336758;28;20274;-66
2022/07/22 10:25:01;;;;;;;7.82;7.10;;;24.30;99.90;;;;;;6338281;28;20273;-67
2022/07/22 10:28:23;;;;;;;9.65;7.97;;;24.20;99.90;;;;;;6319846;28;20290;-66
2022/07/22 10:31:28;;;;;;;9.80;7.50;;;24.30;99.90;;;;;;6337414;28;20270;-66
2022/07/22 10:34:35;;;;;;;9.18;7.88;;;24.00;99.90;;;;;;6337280;28;20269;-66
2022/07/22 10:37:43;;;;;;;8.18;7.30;;;24.00;99.90;;;;;;6337710;28;20321;-66
2022/07/22 10:40:52;;;;;;;8.48;7.28;;;23.80;99.90;;;;;;6337824;28;20265;-66
2022/07/22 10:43:58;;;;;;;8.55;7.63;;;23.60;99.90;;;;;;6337756;28;20529;-67
2022/07/22 10:47:04;;;;;;;10.60;8.65;;;23.50;99.90;;;;;;6337113;28;20394;-67
2022/07/22 10:51:04;;;;;;;11.75;8.50;;;23.30;99.90;;;;;;6336751;28;20608;-67
2022/07/22 10:54:09;;;;;;;9.75;8.20;;;23.20;99.90;;;;;;6325021;28;20269;-67
2022/07/22 10:57:31;;;;;;;11.75;8.35;;;23.30;99.90;;;;;;6337157;28;20269;-67
2022/07/22 11:00:41;;;;;;;9.68;8.60;;;23.30;99.90;;;;;;6337384;28;20270;-67
2022/07/22 11:03:48;;;;;;;12.63;8.45;;;23.20;99.90;;;;;;6337303;28;20269;-67
2022/07/22 11:06:57;;;;;;;10.68;8.90;;;23.20;99.90;;;;;;6312578;28;20262;-67
2022/07/22 11:10:20;;;;;;;13.20;9.07;;;23.20;99.90;;;;;;6310984;28;20307;-67
2022/07/22 11:13:32;;;;;;;11.20;8.55;;;23.40;99.90;;;;;;6311201;28;20558;-67
2022/07/22 11:16:37;;;;;;;9.45;8.48;;;23.40;99.90;;;;;;6311190;28;20275;-67
2022/07/22 11:19:44;;;;;;;12.10;8.52;;;23.60;99.90;;;;;;6311290;28;20565;-67
2022/07/22 11:22:50;;;;;;;10.23;8.75;;;23.60;99.90;;;;;;6311583;28;20271;-67
2022/07/22 11:25:58;;;;;;;10.13;8.70;;;23.60;99.90;;;;;;6311001;28;20270;-67
2022/07/22 11:29:04;;;;;;;12.07;8.85;;;23.60;99.90;;;;;;6310834;28;20294;-67
2022/07/22 11:32:12;;;;;;;16.15;9.00;;;23.70;99.90;;;;;;6311158;28;20546;-67
2022/07/22 11:35:18;;;;;;;19.25;14.98;;;23.70;99.90;;;;;;6310806;28;20271;-67
2022/07/22 11:38:24;;;;;;;12.60;9.90;;;23.70;99.90;;;;;;6310728;28;20302;-67
2022/07/22 11:41:31;;;;;;;10.45;9.38;;;23.60;99.90;;;;;;6311252;28;20270;-67
2022/07/22 11:44:39;;;;;;;11.63;9.88;;;23.50;99.90;;;;;;6311171;28;20338;-67
2022/07/22 11:47:50;;;;;;;12.80;9.65;;;23.50;99.90;;;;;;6311162;28;20574;-67
2022/07/22 11:51:01;;;;;;;11.45;9.02;;;23.50;99.90;;;;;;6310989;28;20322;-67
2022/07/22 11:54:07;;;;;;;18.15;9.18;;;23.50;99.90;;;;;;6311021;28;20275;-67
2022/07/22 11:57:14;;;;;;;12.52;9.27;;;23.60;99.90;;;;;;6310180;28;20275;-67
2022/07/22 12:00:19;;;;;;;13.20;9.65;;;23.40;99.90;;;;;;6310147;28;20270;-67
2022/07/22 12:03:25;;;;;;;17.92;9.57;;;23.60;99.90;;;;;;6310449;28;20452;-67
2022/07/22 12:06:35;;;;;;;15.35;9.05;;;23.50;99.90;;;;;;6310647;28;20263;-67
2022/07/22 12:09:42;;;;;;;15.27;9.23;;;23.40;99.90;;;;;;6310302;28;20290;-67
2022/07/22 12:12:48;;;;;;;11.98;9.15;;;23.30;99.90;;;;;;6310605;28;20270;-67
2022/07/22 12:15:53;;;;;;;17.80;10.02;;;23.40;99.90;;;;;;6310227;28;20270;-67
2022/07/22 12:19:00;;;;;;;13.05;9.05;;;23.60;99.90;;;;;;6310305;28;20422;-67
2022/07/22 12:22:08;;;;;;;16.58;9.48;;;23.60;99.90;;;;;;6310530;28;20270;-67
2022/07/22 12:25:17;;;;;;;15.25;9.63;;;23.50;99.90;;;;;;6310584;28;20274;-67
2022/07/22 12:28:22;;;;;;;14.88;8.85;;;23.20;99.90;;;;;;6310155;28;20274;-67
2022/07/22 12:31:28;;;;;;;15.15;9.40;;;22.90;99.90;;;;;;6310508;28;20290;-67
2022/07/22 12:34:37;;;;;;;14.30;9.23;;;22.80;99.90;;;;;;6310086;28;20270;-67
2022/07/22 12:37:45;;;;;;;14.68;8.70;;;22.70;99.90;;;;;;6318006;28;20297;-67
2022/07/22 12:40:51;;;;;;;15.55;9.13;;;22.80;99.90;;;;;;6319345;28;20278;-67
2022/07/22 12:43:57;;;;;;;10.75;8.63;;;22.80;99.90;;;;;;6340072;28;20270;-67
2022/07/22 12:47:02;;;;;;;13.43;8.65;;;22.80;99.90;;;;;;6340116;28;20270;-67
2022/07/22 12:50:25;;;;;;;14.43;9.05;;;22.80;99.90;;;;;;6339790;28;20475;-67
2022/07/22 12:53:33;;;;;;;11.38;9.25;;;22.70;99.90;;;;;;6339693;28;20553;-67
2022/07/22 12:56:39;;;;;;;13.90;9.40;;;22.50;99.90;;;;;;6340228;28;20342;-67
2022/07/22 12:59:52;;;;;;;14.07;9.57;;;22.40;99.90;;;;;;6340097;28;20273;-67
2022/07/22 13:02:58;;;;;;;15.60;8.52;;;22.40;99.90;;;;;;6340261;28;20592;-67
2022/07/22 13:06:06;;;;;;;17.58;9.70;;;22.30;99.90;;;;;;6339699;28;20262;-67
2022/07/22 13:09:14;;;;;;;12.43;9.27;;;22.30;99.90;;;;;;6339846;28;20329;-67
2022/07/22 13:12:23;;;;;;;15.68;8.80;;;22.30;99.90;;;;;;6340020;28;20269;-67
2022/07/22 13:15:29;;;;;;;10.15;8.48;;;22.20;99.90;;;;;;6340085;28;20274;-67
2022/07/22 13:18:34;;;;;;;11.52;8.23;;;22.10;99.90;;;;;;6339632;28;20269;-67
2022/07/22 13:21:39;;;;;;;13.23;9.25;;;22.00;99.90;;;;;;6339489;28;20282;-67
2022/07/22 13:24:45;;;;;;;13.65;9.10;;;22.10;99.90;;;;;;6339063;28;20270;-67
2022/07/22 13:27:51;;;;;;;13.10;8.85;;;22.10;99.90;;;;;;6339093;28;20266;-67
2022/07/22 13:31:01;;;;;;;9.45;8.43;;;22.00;99.90;;;;;;6339281;28;20289;-67
2022/07/22 13:34:06;;;;;;;9.50;8.07;;;22.00;99.90;;;;;;6339600;28;20266;-67
2022/07/22 13:37:11;;;;;;;11.65;8.27;;;22.00;99.90;;;;;;6335675;28;20302;-67
2022/07/22 13:40:17;;;;;;;11.23;8.02;;;21.90;99.90;;;;;;6313973;28;20279;-66
2022/07/22 13:43:25;;;;;;;11.57;8.60;;;21.80;99.90;;;;;;6313440;28;20274;-66
2022/07/22 13:46:30;;;;;;;12.40;8.10;;;21.90;99.90;;;;;;6314017;28;20271;-66
2022/07/22 13:49:35;;;;;;;12.45;8.50;;;21.90;99.90;;;;;;6313467;28;20270;-66
2022/07/22 13:52:40;;;;;;;13.07;7.95;;;21.90;99.90;;;;;;6311859;28;20510;-67
2022/07/22 13:55:45;;;;;;;14.55;8.43;;;21.90;99.90;;;;;;6312972;28;20549;-67
2022/07/22 13:58:52;;;;;;;11.13;8.40;;;22.00;99.90;;;;;;6312961;28;20275;-67
2022/07/22 14:01:58;;;;;;;11.38;8.38;;;22.00;99.90;;;;;;6313130;28;20274;-67
2022/07/22 14:05:03;;;;;;;11.05;7.85;;;22.00;99.90;;;;;;6312520;28;20267;-67
2022/07/22 14:08:09;;;;;;;15.00;8.75;;;21.90;99.90;;;;;;6312553;28;20274;-67
2022/07/22 14:11:15;;;;;;;14.75;8.57;;;21.80;99.90;;;;;;6313044;28;20293;-67
2022/07/22 14:14:22;;;;;;;13.20;9.50;;;21.80;99.90;;;;;;6312885;28;20274;-67
2022/07/22 14:17:27;;;;;;;9.55;7.85;;;21.70;99.90;;;;;;6312669;28;20470;-67
2022/07/22 14:20:35;;;;;;;11.20;8.65;;;21.80;99.90;;;;;;6312262;28;20270;-67
2022/07/22 14:23:40;;;;;;;10.80;8.68;;;21.60;99.90;;;;;;6312810;28;20274;-67
2022/07/22 14:26:46;;;;;;;15.55;8.07;;;21.60;99.90;;;;;;6312575;28;20271;-67
2022/07/22 14:29:52;;;;;;;13.85;8.35;;;21.70;99.90;;;;;;6312440;28;20274;-67
2022/07/22 14:32:58;;;;;;;14.93;9.25;;;21.80;99.90;;;;;;6312102;28;20296;-66
2022/07/22 14:36:03;;;;;;;13.20;10.30;;;21.80;99.90;;;;;;6311824;28;20525;-66
2022/07/22 14:39:09;;;;;;;11.60;9.13;;;21.70;99.90;;;;;;6332490;28;20302;-67
2022/07/22 14:42:14;;;;;;;15.70;8.77;;;21.80;99.90;;;;;;6336906;28;20376;-67
2022/07/22 14:45:21;;;;;;;11.63;7.90;;;22.00;99.90;;;;;;6337258;28;20557;-67
2022/07/22 14:48:26;;;;;;;15.00;9.45;;;22.10;99.90;;;;;;6336950;28;20261;-67
2022/07/22 14:51:31;;;;;;;14.18;8.68;;;22.20;99.90;;;;;;6337542;28;20292;-67
2022/07/22 14:54:36;;;;;;;13.95;8.35;;;22.10;99.90;;;;;;6336886;28;20269;-67
2022/07/22 14:57:41;;;;;;;12.90;8.85;;;22.00;99.90;;;;;;6337274;28;20270;-67
2022/07/22 15:00:48;;;;;;;11.55;8.65;;;22.00;99.90;;;;;;6336944;28;20581;-67
2022/07/22 15:03:53;;;;;;;12.10;9.02;;;22.00;99.90;;;;;;6336109;28;20274;-67
2022/07/22 15:07:01;;;;;;;10.80;8.48;;;21.90;99.90;;;;;;6336292;28;20270;-67
2022/07/22 15:10:07;;;;;;;12.77;9.05;;;21.90;99.90;;;;;;6336628;28;20269;-67
2022/07/22 15:13:14;;;;;;;12.50;9.00;;;21.80;99.90;;;;;;6336365;28;20289;-67
2022/07/22 15:16:20;;;;;;;16.63;9.93;;;21.90;99.90;;;;;;6336484;28;20270;-67
2022/07/22 15:19:27;;;;;;;17.15;9.70;;;21.80;99.90;;;;;;6336809;28;20271;-67
2022/07/22 15:22:33;;;;;;;16.00;10.30;;;21.70;99.90;;;;;;6336034;28;20277;-68
2022/07/22 15:25:38;;;;;;;16.20;9.98;;;21.70;99.90;;;;;;6328321;28;20269;-67
2022/07/22 15:28:45;;;;;;;13.82;9.38;;;21.60;99.90;;;;;;6336057;28;20266;-68
2022/07/22 15:31:51;;;;;;;9.93;8.45;;;21.60;99.90;;;;;;6335720;28;20290;-67
2022/07/22 15:34:57;;;;;;;12.00;8.82;;;21.50;99.90;;;;;;6336338;28;20274;-68
2022/07/22 15:38:02;;;;;;;16.52;9.45;;;21.40;99.90;;;;;;6335713;28;20495;-66
2022/07/22 15:41:09;;;;;;;12.05;9.52;;;21.30;99.90;;;;;;6335771;28;20198;-68
2022/07/22 15:44:14;;;;;;;20.88;13.60;;;21.30;99.90;;;;;;6335967;28;20305;-67
2022/07/22 15:47:21;;;;;;;18.27;10.55;;;21.30;99.90;;;;;;6336341;28;20270;-67
2022/07/22 15:50:26;;;;;;;20.05;8.15;;;21.40;99.90;;;;;;6335860;28;20269;-67
2022/07/22 15:53:32;;;;;;;16.58;8.48;;;21.40;99.90;;;;;;6335488;28;20289;-67
2022/07/22 15:56:38;;;;;;;12.27;8.80;;;21.40;99.90;;;;;;6335536;28;20541;-67
2022/07/22 15:59:42;;;;;;;16.77;9.48;;;21.50;99.90;;;;;;6335793;28;20269;-67
2022/07/22 16:02:49;;;;;;;11.15;7.88;;;21.50;99.90;;;;;;6335352;28;20274;-67
2022/07/22 16:05:55;;;;;;;11.38;8.82;;;21.50;99.90;;;;;;6335135;28;20565;-67
2022/07/22 16:09:00;;;;;;;15.70;9.38;;;21.40;99.90;;;;;;6335162;28;20269;-67